TimeEST,TemperatureF,Dew PointF,Humidity,Sea Level PressureIn,VisibilityMPH,Wind Direction,Wind SpeedMPH,Gust SpeedMPH,PrecipitationIn,Events,Conditions,WindDirDegrees,DateUTC
12:54 AM,41.0,33.1,73,30.14,10.0,WNW,3.5,-,N/A,,Overcast,290,2013-01-07 05:54:00
1:54 AM,41.0,30.9,67,30.16,10.0,West,3.5,-,N/A,,Overcast,270,2013-01-07 06:54:00
2:54 AM,41.0,28.9,62,30.17,10.0,WNW,5.8,-,N/A,,Clear,300,2013-01-07 07:54:00
3:54 AM,39.0,28.0,65,30.19,10.0,Calm,Calm,-,N/A,,Clear,0,2013-01-07 08:54:00
4:54 AM,39.9,28.0,63,30.21,10.0,WNW,3.5,16.1,N/A,,Clear,300,2013-01-07 09:54:00
5:54 AM,37.0,28.0,70,30.26,10.0,NW,5.8,-,N/A,,Clear,310,2013-01-07 10:54:00
6:54 AM,37.9,28.0,68,30.29,10.0,NW,5.8,-,N/A,,Partly Cloudy,320,2013-01-07 11:54:00
7:54 AM,37.9,28.0,68,30.32,10.0,WNW,3.5,-,N/A,,Clear,300,2013-01-07 12:54:00
8:54 AM,44.1,30.0,58,30.35,10.0,NW,6.9,-,N/A,,Clear,310,2013-01-07 13:54:00
9:54 AM,46.9,28.9,50,30.38,10.0,NW,13.8,-,N/A,,Clear,320,2013-01-07 14:54:00
10:54 AM,50.0,28.0,43,30.39,10.0,NNW,13.8,-,N/A,,Clear,330,2013-01-07 15:54:00
11:54 AM,50.0,27.0,41,30.38,10.0,NW,10.4,19.6,N/A,,Partly Cloudy,320,2013-01-07 16:54:00
12:54 PM,50.0,27.0,41,30.37,10.0,NNW,9.2,-,N/A,,Scattered Clouds,340,2013-01-07 17:54:00
1:54 PM,52.0,26.1,37,30.37,10.0,North,9.2,-,N/A,,Scattered Clouds,10,2013-01-07 18:54:00
2:54 PM,48.9,26.1,41,30.39,10.0,NW,5.8,-,N/A,,Clear,320,2013-01-07 19:54:00
3:54 PM,50.0,26.1,39,30.41,10.0,NW,6.9,-,N/A,,Clear,320,2013-01-07 20:54:00
4:54 PM,46.9,26.1,44,30.43,10.0,Calm,Calm,-,N/A,,Clear,0,2013-01-07 21:54:00
6:54 PM,36.0,27.0,70,30.46,10.0,East,3.5,-,N/A,,Clear,90,2013-01-07 23:54:00
7:54 PM,30.9,25.0,79,30.45,10.0,Calm,Calm,-,N/A,,Clear,0,2013-01-08 00:54:00
8:54 PM,33.1,26.1,75,30.46,10.0,Calm,Calm,-,N/A,,Clear,0,2013-01-08 01:54:00
9:54 PM,30.9,25.0,79,30.46,10.0,Calm,Calm,-,N/A,,Clear,0,2013-01-08 02:54:00
10:54 PM,30.0,25.0,82,30.47,10.0,Calm,Calm,-,N/A,,Clear,0,2013-01-08 03:54:00
11:54 PM,28.0,23.0,81,30.45,10.0,Calm,Calm,-,N/A,,Clear,0,2013-01-08 04:54:00